sensor_id;sensor_type;location;lat;lon;timestamp;P1;durP1;ratioP1;P2;durP2;ratioP2
41059;SDS011;26811;53.160;8.202;2024-03-02T00:01:16;25.13;;;12.73;;
41059;SDS011;26811;53.160;8.202;2024-03-02T00:06:19;25.50;;;13.23;;
41059;SDS011;26811;53.160;8.202;2024-03-02T00:11:20;25.77;;;12.73;;
41059;SDS011;26811;53.160;8.202;2024-03-02T00:16:21;25.77;;;13.65;;
41059;SDS011;26811;53.160;8.202;2024-03-02T00:21:24;23.60;;;13.50;;
41059;SDS011;26811;53.160;8.202;2024-03-02T00:26:28;25.90;;;13.38;;
41059;SDS011;26811;53.160;8.202;2024-03-02T00:31:29;26.98;;;13.07;;
41059;SDS011;26811;53.160;8.202;2024-03-02T00:36:30;22.58;;;12.63;;
41059;SDS011;26811;53.160;8.202;2024-03-02T00:41:30;24.08;;;12.95;;
41059;SDS011;26811;53.160;8.202;2024-03-02T00:46:42;18.42;;;11.20;;
41059;SDS011;26811;53.160;8.202;2024-03-02T00:51:45;25.33;;;11.73;;
41059;SDS011;26811;53.160;8.202;2024-03-02T00:56:47;24.45;;;12.65;;
41059;SDS011;26811;53.160;8.202;2024-03-02T01:01:48;25.08;;;12.52;;
41059;SDS011;26811;53.160;8.202;2024-03-02T01:06:49;25.33;;;12.43;;
41059;SDS011;26811;53.160;8.202;2024-03-02T01:11:50;21.85;;;11.70;;
41059;SDS011;26811;53.160;8.202;2024-03-02T01:16:50;22.13;;;12.05;;
41059;SDS011;26811;53.160;8.202;2024-03-02T01:21:51;22.70;;;12.13;;
41059;SDS011;26811;53.160;8.202;2024-03-02T01:26:51;21.42;;;11.77;;
41059;SDS011;26811;53.160;8.202;2024-03-02T01:31:52;22.70;;;12.32;;
41059;SDS011;26811;53.160;8.202;2024-03-02T01:36:53;22.80;;;11.77;;
41059;SDS011;26811;53.160;8.202;2024-03-02T01:41:54;21.67;;;11.98;;
41059;SDS011;26811;53.160;8.202;2024-03-02T01:46:54;21.75;;;11.63;;
41059;SDS011;26811;53.160;8.202;2024-03-02T01:51:55;23.02;;;12.00;;
41059;SDS011;26811;53.160;8.202;2024-03-02T01:56:56;21.00;;;11.27;;
41059;SDS011;26811;53.160;8.202;2024-03-02T02:01:57;21.60;;;11.52;;
41059;SDS011;26811;53.160;8.202;2024-03-02T02:06:57;23.95;;;12.27;;
41059;SDS011;26811;53.160;8.202;2024-03-02T02:11:58;22.23;;;11.68;;
41059;SDS011;26811;53.160;8.202;2024-03-02T02:16:59;22.42;;;11.77;;
41059;SDS011;26811;53.160;8.202;2024-03-02T02:22:00;21.27;;;11.32;;
41059;SDS011;26811;53.160;8.202;2024-03-02T02:27:00;20.98;;;11.30;;
41059;SDS011;26811;53.160;8.202;2024-03-02T02:32:01;19.55;;;11.20;;
41059;SDS011;26811;53.160;8.202;2024-03-02T02:37:01;21.02;;;10.93;;
41059;SDS011;26811;53.160;8.202;2024-03-02T02:42:02;19.67;;;10.65;;
41059;SDS011;26811;53.160;8.202;2024-03-02T02:47:02;18.70;;;10.52;;
41059;SDS011;26811;53.160;8.202;2024-03-02T02:52:03;22.55;;;10.95;;
41059;SDS011;26811;53.160;8.202;2024-03-02T02:57:04;20.67;;;11.60;;
41059;SDS011;26811;53.160;8.202;2024-03-02T03:02:04;21.15;;;11.93;;
41059;SDS011;26811;53.160;8.202;2024-03-02T03:07:05;20.75;;;11.25;;
41059;SDS011;26811;53.160;8.202;2024-03-02T03:12:06;18.60;;;10.75;;
41059;SDS011;26811;53.160;8.202;2024-03-02T03:17:06;18.90;;;11.25;;
41059;SDS011;26811;53.160;8.202;2024-03-02T03:22:08;20.23;;;10.80;;
41059;SDS011;26811;53.160;8.202;2024-03-02T03:27:09;20.02;;;10.75;;
41059;SDS011;26811;53.160;8.202;2024-03-02T03:32:11;18.23;;;10.50;;
41059;SDS011;26811;53.160;8.202;2024-03-02T03:37:12;19.02;;;11.18;;
41059;SDS011;26811;53.160;8.202;2024-03-02T03:42:12;19.67;;;11.07;;
41059;SDS011;26811;53.160;8.202;2024-03-02T03:47:13;20.77;;;11.05;;
41059;SDS011;26811;53.160;8.202;2024-03-02T03:52:13;19.23;;;11.32;;
41059;SDS011;26811;53.160;8.202;2024-03-02T03:57:14;19.42;;;10.40;;
41059;SDS011;26811;53.160;8.202;2024-03-02T04:02:14;21.38;;;11.13;;
41059;SDS011;26811;53.160;8.202;2024-03-02T04:07:15;22.42;;;11.63;;
41059;SDS011;26811;53.160;8.202;2024-03-02T04:12:15;20.77;;;11.50;;
41059;SDS011;26811;53.160;8.202;2024-03-02T04:17:16;23.55;;;11.98;;
41059;SDS011;26811;53.160;8.202;2024-03-02T04:22:16;22.15;;;11.73;;
41059;SDS011;26811;53.160;8.202;2024-03-02T04:27:17;21.38;;;11.75;;
41059;SDS011;26811;53.160;8.202;2024-03-02T04:32:17;22.90;;;12.18;;
41059;SDS011;26811;53.160;8.202;2024-03-02T04:37:19;22.40;;;12.38;;
41059;SDS011;26811;53.160;8.202;2024-03-02T04:42:20;21.85;;;13.07;;
41059;SDS011;26811;53.160;8.202;2024-03-02T04:47:21;22.35;;;12.20;;
41059;SDS011;26811;53.160;8.202;2024-03-02T04:52:22;21.55;;;12.25;;
41059;SDS011;26811;53.160;8.202;2024-03-02T04:57:23;21.95;;;12.43;;
41059;SDS011;26811;53.160;8.202;2024-03-02T05:02:23;21.42;;;12.10;;
41059;SDS011;26811;53.160;8.202;2024-03-02T05:07:24;21.70;;;12.18;;
41059;SDS011;26811;53.160;8.202;2024-03-02T05:12:24;22.92;;;12.25;;
41059;SDS011;26811;53.160;8.202;2024-03-02T05:17:43;22.38;;;12.23;;
41059;SDS011;26811;53.160;8.202;2024-03-02T05:22:43;23.15;;;12.70;;
41059;SDS011;26811;53.160;8.202;2024-03-02T05:27:44;22.08;;;11.65;;
41059;SDS011;26811;53.160;8.202;2024-03-02T05:32:45;21.83;;;12.05;;
41059;SDS011;26811;53.160;8.202;2024-03-02T05:37:45;22.77;;;12.30;;
41059;SDS011;26811;53.160;8.202;2024-03-02T05:42:46;22.20;;;12.57;;
41059;SDS011;26811;53.160;8.202;2024-03-02T05:47:47;25.08;;;12.63;;
41059;SDS011;26811;53.160;8.202;2024-03-02T05:52:47;22.30;;;11.95;;
41059;SDS011;26811;53.160;8.202;2024-03-02T05:57:48;19.23;;;11.55;;
41059;SDS011;26811;53.160;8.202;2024-03-02T06:03:06;22.58;;;12.18;;
41059;SDS011;26811;53.160;8.202;2024-03-02T06:08:09;23.50;;;11.83;;
41059;SDS011;26811;53.160;8.202;2024-03-02T06:13:09;27.45;;;13.70;;
41059;SDS011;26811;53.160;8.202;2024-03-02T06:18:10;20.88;;;12.32;;
41059;SDS011;26811;53.160;8.202;2024-03-02T06:23:10;21.70;;;12.52;;
41059;SDS011;26811;53.160;8.202;2024-03-02T06:28:11;23.70;;;12.95;;
41059;SDS011;26811;53.160;8.202;2024-03-02T06:33:11;23.90;;;12.77;;
41059;SDS011;26811;53.160;8.202;2024-03-02T06:38:12;22.80;;;12.80;;
41059;SDS011;26811;53.160;8.202;2024-03-02T06:43:13;24.65;;;12.73;;
41059;SDS011;26811;53.160;8.202;2024-03-02T06:48:13;22.40;;;13.00;;
41059;SDS011;26811;53.160;8.202;2024-03-02T06:53:18;25.23;;;13.15;;
41059;SDS011;26811;53.160;8.202;2024-03-02T06:58:19;25.67;;;14.05;;
41059;SDS011;26811;53.160;8.202;2024-03-02T07:03:20;27.60;;;14.23;;
41059;SDS011;26811;53.160;8.202;2024-03-02T07:08:20;27.70;;;14.10;;
41059;SDS011;26811;53.160;8.202;2024-03-02T07:13:21;24.05;;;13.43;;
41059;SDS011;26811;53.160;8.202;2024-03-02T07:18:22;29.25;;;15.32;;
41059;SDS011;26811;53.160;8.202;2024-03-02T07:23:22;25.27;;;13.68;;
41059;SDS011;26811;53.160;8.202;2024-03-02T07:28:27;23.05;;;13.52;;
41059;SDS011;26811;53.160;8.202;2024-03-02T07:33:27;25.90;;;14.63;;
41059;SDS011;26811;53.160;8.202;2024-03-02T07:38:28;27.17;;;14.98;;
41059;SDS011;26811;53.160;8.202;2024-03-02T07:43:29;28.70;;;14.48;;
41059;SDS011;26811;53.160;8.202;2024-03-02T07:48:30;27.63;;;15.70;;
41059;SDS011;26811;53.160;8.202;2024-03-02T07:53:31;29.98;;;16.17;;
41059;SDS011;26811;53.160;8.202;2024-03-02T07:58:31;29.10;;;15.70;;
41059;SDS011;26811;53.160;8.202;2024-03-02T08:03:33;30.48;;;15.13;;
41059;SDS011;26811;53.160;8.202;2024-03-02T08:08:34;27.33;;;15.40;;
41059;SDS011;26811;53.160;8.202;2024-03-02T08:13:34;23.67;;;13.82;;
41059;SDS011;26811;53.160;8.202;2024-03-02T08:18:35;24.98;;;13.65;;
41059;SDS011;26811;53.160;8.202;2024-03-02T08:23:35;21.17;;;13.15;;
41059;SDS011;26811;53.160;8.202;2024-03-02T08:28:37;24.40;;;13.82;;
41059;SDS011;26811;53.160;8.202;2024-03-02T08:33:40;22.38;;;12.82;;
41059;SDS011;26811;53.160;8.202;2024-03-02T08:38:41;20.15;;;12.27;;
41059;SDS011;26811;53.160;8.202;2024-03-02T08:43:41;22.48;;;11.93;;
41059;SDS011;26811;53.160;8.202;2024-03-02T08:48:42;19.20;;;12.07;;
41059;SDS011;26811;53.160;8.202;2024-03-02T08:53:43;21.52;;;12.73;;
41059;SDS011;26811;53.160;8.202;2024-03-02T08:58:43;20.92;;;11.32;;
41059;SDS011;26811;53.160;8.202;2024-03-02T09:03:44;18.95;;;11.20;;
41059;SDS011;26811;53.160;8.202;2024-03-02T09:08:45;17.70;;;10.90;;
41059;SDS011;26811;53.160;8.202;2024-03-02T09:13:45;17.30;;;10.30;;
41059;SDS011;26811;53.160;8.202;2024-03-02T09:18:46;14.70;;;9.80;;
41059;SDS011;26811;53.160;8.202;2024-03-02T09:23:47;15.50;;;10.00;;
41059;SDS011;26811;53.160;8.202;2024-03-02T09:28:48;21.90;;;11.25;;
41059;SDS011;26811;53.160;8.202;2024-03-02T09:33:48;18.50;;;10.75;;
41059;SDS011;26811;53.160;8.202;2024-03-02T09:38:49;17.13;;;10.70;;
41059;SDS011;26811;53.160;8.202;2024-03-02T09:43:50;17.67;;;10.25;;
41059;SDS011;26811;53.160;8.202;2024-03-02T09:48:50;15.27;;;9.45;;
41059;SDS011;26811;53.160;8.202;2024-03-02T09:53:51;16.67;;;9.48;;
41059;SDS011;26811;53.160;8.202;2024-03-02T09:58:53;14.32;;;9.05;;
41059;SDS011;26811;53.160;8.202;2024-03-02T10:03:53;15.00;;;8.40;;
41059;SDS011;26811;53.160;8.202;2024-03-02T10:08:55;13.27;;;8.50;;
41059;SDS011;26811;53.160;8.202;2024-03-02T10:14:12;11.88;;;7.22;;
41059;SDS011;26811;53.160;8.202;2024-03-02T10:19:20;11.20;;;7.15;;
41059;SDS011;26811;53.160;8.202;2024-03-02T10:24:22;11.82;;;7.40;;
41059;SDS011;26811;53.160;8.202;2024-03-02T10:29:23;11.77;;;6.43;;
41059;SDS011;26811;53.160;8.202;2024-03-02T10:34:23;10.18;;;6.75;;
41059;SDS011;26811;53.160;8.202;2024-03-02T10:39:24;12.25;;;6.97;;
41059;SDS011;26811;53.160;8.202;2024-03-02T10:44:25;11.10;;;6.55;;
41059;SDS011;26811;53.160;8.202;2024-03-02T10:49:27;10.75;;;6.35;;
41059;SDS011;26811;53.160;8.202;2024-03-02T10:54:28;9.55;;;5.82;;
41059;SDS011;26811;53.160;8.202;2024-03-02T10:59:36;11.68;;;6.18;;
41059;SDS011;26811;53.160;8.202;2024-03-02T11:04:39;8.50;;;6.10;;
41059;SDS011;26811;53.160;8.202;2024-03-02T11:09:43;10.80;;;5.80;;
41059;SDS011;26811;53.160;8.202;2024-03-02T11:14:52;6.93;;;5.53;;
41059;SDS011;26811;53.160;8.202;2024-03-02T11:19:55;8.10;;;5.68;;
41059;SDS011;26811;53.160;8.202;2024-03-02T11:24:56;11.15;;;5.70;;
41059;SDS011;26811;53.160;8.202;2024-03-02T11:29:57;9.23;;;5.97;;
41059;SDS011;26811;53.160;8.202;2024-03-02T11:34:57;10.48;;;6.32;;
41059;SDS011;26811;53.160;8.202;2024-03-02T11:39:58;8.75;;;6.00;;
41059;SDS011;26811;53.160;8.202;2024-03-02T11:44:59;10.65;;;6.55;;
41059;SDS011;26811;53.160;8.202;2024-03-02T11:49:59;8.57;;;6.57;;
41059;SDS011;26811;53.160;8.202;2024-03-02T11:55:00;10.75;;;7.30;;
41059;SDS011;26811;53.160;8.202;2024-03-02T12:00:03;9.80;;;7.13;;
41059;SDS011;26811;53.160;8.202;2024-03-02T12:05:05;12.02;;;7.55;;
41059;SDS011;26811;53.160;8.202;2024-03-02T12:10:08;11.67;;;7.60;;
41059;SDS011;26811;53.160;8.202;2024-03-02T12:15:08;14.85;;;7.93;;
41059;SDS011;26811;53.160;8.202;2024-03-02T12:20:11;12.23;;;7.30;;
41059;SDS011;26811;53.160;8.202;2024-03-02T12:25:12;11.93;;;7.33;;
41059;SDS011;26811;53.160;8.202;2024-03-02T12:30:13;11.30;;;7.07;;
41059;SDS011;26811;53.160;8.202;2024-03-02T12:35:14;13.52;;;7.70;;
41059;SDS011;26811;53.160;8.202;2024-03-02T12:40:16;12.50;;;7.60;;
41059;SDS011;26811;53.160;8.202;2024-03-02T12:45:18;11.52;;;6.78;;
41059;SDS011;26811;53.160;8.202;2024-03-02T12:50:23;10.45;;;6.53;;
41059;SDS011;26811;53.160;8.202;2024-03-02T12:55:24;10.95;;;6.18;;
41059;SDS011;26811;53.160;8.202;2024-03-02T13:00:24;12.48;;;6.63;;
41059;SDS011;26811;53.160;8.202;2024-03-02T13:05:25;12.63;;;5.80;;
41059;SDS011;26811;53.160;8.202;2024-03-02T13:10:30;10.85;;;6.20;;
41059;SDS011;26811;53.160;8.202;2024-03-02T13:15:32;8.55;;;5.82;;
41059;SDS011;26811;53.160;8.202;2024-03-02T13:20:33;9.03;;;5.63;;
41059;SDS011;26811;53.160;8.202;2024-03-02T13:25:35;7.28;;;5.47;;
41059;SDS011;26811;53.160;8.202;2024-03-02T13:30:36;9.18;;;5.93;;
41059;SDS011;26811;53.160;8.202;2024-03-02T13:35:36;9.48;;;5.28;;
41059;SDS011;26811;53.160;8.202;2024-03-02T13:40:37;8.50;;;5.30;;
41059;SDS011;26811;53.160;8.202;2024-03-02T13:45:38;8.73;;;5.80;;
41059;SDS011;26811;53.160;8.202;2024-03-02T13:50:38;10.80;;;6.07;;
41059;SDS011;26811;53.160;8.202;2024-03-02T13:55:39;11.30;;;6.55;;
41059;SDS011;26811;53.160;8.202;2024-03-02T14:00:41;9.50;;;6.40;;
41059;SDS011;26811;53.160;8.202;2024-03-02T14:05:44;10.10;;;6.70;;
41059;SDS011;26811;53.160;8.202;2024-03-02T14:10:46;11.32;;;6.70;;
41059;SDS011;26811;53.160;8.202;2024-03-02T14:15:46;10.73;;;5.90;;
41059;SDS011;26811;53.160;8.202;2024-03-02T14:20:47;11.65;;;6.97;;
41059;SDS011;26811;53.160;8.202;2024-03-02T14:25:52;11.52;;;7.00;;
41059;SDS011;26811;53.160;8.202;2024-03-02T14:30:53;10.40;;;6.88;;
41059;SDS011;26811;53.160;8.202;2024-03-02T14:35:54;11.45;;;6.97;;
41059;SDS011;26811;53.160;8.202;2024-03-02T14:40:55;12.70;;;7.53;;
41059;SDS011;26811;53.160;8.202;2024-03-02T14:45:56;11.82;;;7.68;;
41059;SDS011;26811;53.160;8.202;2024-03-02T14:50:57;15.50;;;8.90;;
41059;SDS011;26811;53.160;8.202;2024-03-02T14:55:57;14.52;;;8.48;;
41059;SDS011;26811;53.160;8.202;2024-03-02T15:00:58;14.50;;;8.25;;
41059;SDS011;26811;53.160;8.202;2024-03-02T15:05:59;13.10;;;8.30;;
41059;SDS011;26811;53.160;8.202;2024-03-02T15:10:59;16.02;;;9.07;;
41059;SDS011;26811;53.160;8.202;2024-03-02T15:16:01;15.48;;;9.27;;
41059;SDS011;26811;53.160;8.202;2024-03-02T15:21:01;12.98;;;7.68;;
41059;SDS011;26811;53.160;8.202;2024-03-02T15:26:02;13.73;;;8.07;;
41059;SDS011;26811;53.160;8.202;2024-03-02T15:31:03;14.90;;;7.63;;
41059;SDS011;26811;53.160;8.202;2024-03-02T15:36:04;11.68;;;7.35;;
41059;SDS011;26811;53.160;8.202;2024-03-02T15:41:05;11.43;;;7.30;;
41059;SDS011;26811;53.160;8.202;2024-03-02T15:46:05;11.23;;;6.90;;
41059;SDS011;26811;53.160;8.202;2024-03-02T15:51:06;12.73;;;7.53;;
41059;SDS011;26811;53.160;8.202;2024-03-02T15:56:07;13.32;;;7.45;;
41059;SDS011;26811;53.160;8.202;2024-03-02T16:01:07;13.55;;;7.70;;
41059;SDS011;26811;53.160;8.202;2024-03-02T16:06:08;11.13;;;7.28;;
41059;SDS011;26811;53.160;8.202;2024-03-02T16:11:08;11.77;;;7.40;;
41059;SDS011;26811;53.160;8.202;2024-03-02T16:16:10;12.35;;;7.20;;
41059;SDS011;26811;53.160;8.202;2024-03-02T16:21:11;11.07;;;7.53;;
41059;SDS011;26811;53.160;8.202;2024-03-02T16:26:12;11.43;;;7.30;;
41059;SDS011;26811;53.160;8.202;2024-03-02T16:31:13;13.88;;;7.18;;
41059;SDS011;26811;53.160;8.202;2024-03-02T16:36:15;14.57;;;8.00;;
41059;SDS011;26811;53.160;8.202;2024-03-02T16:41:16;10.23;;;6.68;;
41059;SDS011;26811;53.160;8.202;2024-03-02T16:46:17;11.93;;;7.43;;
41059;SDS011;26811;53.160;8.202;2024-03-02T16:51:18;12.10;;;7.60;;
41059;SDS011;26811;53.160;8.202;2024-03-02T16:56:19;11.95;;;6.45;;
41059;SDS011;26811;53.160;8.202;2024-03-02T17:01:20;12.73;;;6.70;;
41059;SDS011;26811;53.160;8.202;2024-03-02T17:06:20;13.52;;;7.60;;
41059;SDS011;26811;53.160;8.202;2024-03-02T17:11:21;14.43;;;8.15;;
41059;SDS011;26811;53.160;8.202;2024-03-02T17:16:22;10.93;;;7.07;;
41059;SDS011;26811;53.160;8.202;2024-03-02T17:21:23;11.23;;;7.10;;
41059;SDS011;26811;53.160;8.202;2024-03-02T17:26:25;10.07;;;6.80;;
41059;SDS011;26811;53.160;8.202;2024-03-02T17:31:25;13.65;;;7.55;;
41059;SDS011;26811;53.160;8.202;2024-03-02T17:36:26;14.15;;;7.82;;
41059;SDS011;26811;53.160;8.202;2024-03-02T17:41:26;11.85;;;7.72;;
41059;SDS011;26811;53.160;8.202;2024-03-02T17:46:27;11.52;;;7.38;;
41059;SDS011;26811;53.160;8.202;2024-03-02T17:51:27;15.40;;;8.20;;
41059;SDS011;26811;53.160;8.202;2024-03-02T17:56:28;13.90;;;7.85;;
41059;SDS011;26811;53.160;8.202;2024-03-02T18:01:30;11.00;;;7.07;;
41059;SDS011;26811;53.160;8.202;2024-03-02T18:06:31;12.30;;;7.47;;
41059;SDS011;26811;53.160;8.202;2024-03-02T18:11:31;12.77;;;7.15;;
41059;SDS011;26811;53.160;8.202;2024-03-02T18:16:32;14.00;;;7.90;;
41059;SDS011;26811;53.160;8.202;2024-03-02T18:21:32;15.23;;;8.98;;
41059;SDS011;26811;53.160;8.202;2024-03-02T18:26:33;14.50;;;8.45;;
41059;SDS011;26811;53.160;8.202;2024-03-02T18:31:35;13.98;;;8.55;;
41059;SDS011;26811;53.160;8.202;2024-03-02T18:36:35;15.30;;;9.05;;
41059;SDS011;26811;53.160;8.202;2024-03-02T18:41:36;15.73;;;9.38;;
41059;SDS011;26811;53.160;8.202;2024-03-02T18:46:36;19.27;;;9.88;;
41059;SDS011;26811;53.160;8.202;2024-03-02T18:51:37;17.90;;;10.23;;
41059;SDS011;26811;53.160;8.202;2024-03-02T18:56:39;16.08;;;9.50;;
41059;SDS011;26811;53.160;8.202;2024-03-02T19:01:39;18.02;;;10.20;;
41059;SDS011;26811;53.160;8.202;2024-03-02T19:06:40;17.02;;;10.02;;
41059;SDS011;26811;53.160;8.202;2024-03-02T19:11:40;16.88;;;9.27;;
41059;SDS011;26811;53.160;8.202;2024-03-02T19:16:41;21.60;;;10.20;;
41059;SDS011;26811;53.160;8.202;2024-03-02T19:21:44;15.05;;;9.25;;
41059;SDS011;26811;53.160;8.202;2024-03-02T19:26:45;20.02;;;9.95;;
41059;SDS011;26811;53.160;8.202;2024-03-02T19:31:46;16.80;;;9.10;;
41059;SDS011;26811;53.160;8.202;2024-03-02T19:36:46;19.52;;;10.25;;
41059;SDS011;26811;53.160;8.202;2024-03-02T19:41:47;17.75;;;10.20;;
41059;SDS011;26811;53.160;8.202;2024-03-02T19:46:47;19.77;;;10.35;;
41059;SDS011;26811;53.160;8.202;2024-03-02T19:51:48;19.40;;;9.73;;
41059;SDS011;26811;53.160;8.202;2024-03-02T19:56:48;17.95;;;9.93;;
41059;SDS011;26811;53.160;8.202;2024-03-02T20:01:49;18.83;;;10.48;;
41059;SDS011;26811;53.160;8.202;2024-03-02T20:06:53;22.40;;;11.93;;
41059;SDS011;26811;53.160;8.202;2024-03-02T20:11:54;21.75;;;11.25;;
41059;SDS011;26811;53.160;8.202;2024-03-02T20:16:55;22.10;;;11.40;;
41059;SDS011;26811;53.160;8.202;2024-03-02T20:21:56;17.90;;;9.88;;
41059;SDS011;26811;53.160;8.202;2024-03-02T20:26:58;17.40;;;10.23;;
41059;SDS011;26811;53.160;8.202;2024-03-02T20:31:58;19.10;;;10.25;;
41059;SDS011;26811;53.160;8.202;2024-03-02T20:36:59;18.27;;;9.77;;
41059;SDS011;26811;53.160;8.202;2024-03-02T20:42:00;20.33;;;9.90;;
41059;SDS011;26811;53.160;8.202;2024-03-02T20:47:01;16.27;;;8.95;;
41059;SDS011;26811;53.160;8.202;2024-03-02T20:52:02;17.98;;;9.57;;
41059;SDS011;26811;53.160;8.202;2024-03-02T20:57:03;20.23;;;9.88;;
41059;SDS011;26811;53.160;8.202;2024-03-02T21:02:05;17.23;;;9.70;;
41059;SDS011;26811;53.160;8.202;2024-03-02T21:07:06;19.17;;;10.00;;
41059;SDS011;26811;53.160;8.202;2024-03-02T21:12:06;16.77;;;9.40;;
41059;SDS011;26811;53.160;8.202;2024-03-02T21:17:08;18.15;;;9.43;;
41059;SDS011;26811;53.160;8.202;2024-03-02T21:22:09;20.95;;;9.52;;
41059;SDS011;26811;53.160;8.202;2024-03-02T21:27:10;14.65;;;9.05;;
41059;SDS011;26811;53.160;8.202;2024-03-02T21:32:11;17.58;;;10.05;;
41059;SDS011;26811;53.160;8.202;2024-03-02T21:37:11;17.08;;;9.75;;
41059;SDS011;26811;53.160;8.202;2024-03-02T21:42:12;19.75;;;10.32;;
41059;SDS011;26811;53.160;8.202;2024-03-02T21:47:12;18.58;;;9.68;;
41059;SDS011;26811;53.160;8.202;2024-03-02T21:52:14;19.08;;;10.00;;
41059;SDS011;26811;53.160;8.202;2024-03-02T21:57:15;19.58;;;9.75;;
41059;SDS011;26811;53.160;8.202;2024-03-02T22:02:21;19.08;;;10.40;;
41059;SDS011;26811;53.160;8.202;2024-03-02T22:07:22;21.38;;;10.73;;
41059;SDS011;26811;53.160;8.202;2024-03-02T22:12:22;20.13;;;10.32;;
41059;SDS011;26811;53.160;8.202;2024-03-02T22:17:24;18.27;;;10.75;;
41059;SDS011;26811;53.160;8.202;2024-03-02T22:22:28;19.33;;;10.65;;
41059;SDS011;26811;53.160;8.202;2024-03-02T22:27:28;20.70;;;10.45;;
41059;SDS011;26811;53.160;8.202;2024-03-02T22:32:29;22.85;;;10.40;;
41059;SDS011;26811;53.160;8.202;2024-03-02T22:37:29;20.88;;;10.65;;
41059;SDS011;26811;53.160;8.202;2024-03-02T22:42:30;24.73;;;11.05;;
41059;SDS011;26811;53.160;8.202;2024-03-02T22:47:30;21.55;;;10.85;;
41059;SDS011;26811;53.160;8.202;2024-03-02T22:52:31;22.50;;;10.80;;
41059;SDS011;26811;53.160;8.202;2024-03-02T22:57:32;16.70;;;10.07;;
41059;SDS011;26811;53.160;8.202;2024-03-02T23:02:33;21.30;;;10.27;;
41059;SDS011;26811;53.160;8.202;2024-03-02T23:07:34;23.35;;;11.45;;
41059;SDS011;26811;53.160;8.202;2024-03-02T23:12:34;25.23;;;11.07;;
41059;SDS011;26811;53.160;8.202;2024-03-02T23:17:35;25.13;;;11.65;;
41059;SDS011;26811;53.160;8.202;2024-03-02T23:22:35;23.27;;;12.23;;
41059;SDS011;26811;53.160;8.202;2024-03-02T23:27:36;26.17;;;13.13;;
41059;SDS011;26811;53.160;8.202;2024-03-02T23:32:37;25.80;;;13.32;;
41059;SDS011;26811;53.160;8.202;2024-03-02T23:37:37;24.83;;;13.65;;
41059;SDS011;26811;53.160;8.202;2024-03-02T23:42:38;29.83;;;13.75;;
41059;SDS011;26811;53.160;8.202;2024-03-02T23:47:39;30.00;;;14.93;;
41059;SDS011;26811;53.160;8.202;2024-03-02T23:52:40;35.25;;;16.10;;
41059;SDS011;26811;53.160;8.202;2024-03-02T23:57:40;31.88;;;16.30;;
